Kailua Kona, HI (96745)

9:49 AM HST on August 03, 2015 (GMT -1000)
Keapu | | Change Station
CLOSE
Current Station
Personal Weather Station
Location: Hōlualoa, HI
Elevation: 1526 ft
Nearby Weather Stations

Elev 1526 ft 19.67 °N, 155.97 °W | Updated 23 minutes ago

Scattered Clouds
Scattered Clouds
81.9 °F
Feels Like 86 °F
N
6.0
Wind Variable Wind from WSW
Gusts 8.0 mph

Today
High -- | Low -- °F
--% Chance of Precip.
Yesterday
High -- | Low -- °F
Precip. -- in
6:00 AM 6:59 PM
Waning Gibbous, 84% visible
Pressure 29.86 in
Visibility 10.0 miles
Clouds Few 4000 ft
Scattered Clouds 9000 ft
Scattered Clouds 20000 ft
Heat Index 86 °F
Dew Point 71 °F
Humidity 70%
Rainfall 0.00 in
Snow Depth Not available.
UV 4 out of 12
Pollen Not available.
Air Quality Not available.
Flu Activity Not available.
METAR PHKO 031853Z 36015KT 10SM FEW040 SCT090 SCT200 30/23 A2985 RMK AO2 SLP109 T03000228

More Conditions Fewer Conditions

Pressure 29.86 in
Visibility 10.0 miles
Clouds Few 4000 ft
Scattered Clouds 9000 ft
Scattered Clouds 20000 ft
Heat Index 86 °F
Dew Point 71 °F
Humidity 70%
Rainfall 0.00 in
Snow Depth Not available.
UV 4 out of 12
Pollen Not available.
Air Quality Not available.
Flu Activity Not available.
METAR PHKO 031853Z 36015KT 10SM FEW040 SCT090 SCT200 30/23 A2985 RMK AO2 SLP109 T03000228

More Conditions Fewer Conditions

10-Day Weather Forecast

×

Almanac

Astronomy

Aug. 03, 2015 Rise Set
Actual Time
Civil Twilight
Nautical Twilight
Astronomical Twilight
Moon
Length of Visible Light
Length of Day
Tomorrow will be .
, % of the Moon is Illuminated

Today's Extremes

State Highs State Lows

Community

WunderPhotos

Upload Photos

1,843,717 photos uploaded!

WunderBlogs® & News

Nearby

Air Quality

  Air Quality AQ Index Pollutant
Not available.

Snow Depth

Station Depth Elevation

Earthquake Activity

City Distance Mag. Time & Date
Minimum magnitude displayed is 2.5.

Coastal Water Temperatures

Place Temperature

Stations

Nearby Weather Stations

Station Location Temp. Windchill Dew Point Humidity Wind Precip. Elev Updated Type